sensor_id;sensor_type;location;lat;lon;timestamp;pressure;altitude;pressure_sealevel;temperature;humidity
46291;BME280;32023;44.444;26.006;2023-06-05T00:00:47;100907.88;;;17.44;55.79
46291;BME280;32023;44.444;26.006;2023-06-05T00:03:13;100903.16;;;17.44;55.78
46291;BME280;32023;44.444;26.006;2023-06-05T00:05:42;100906.22;;;17.43;55.71
46291;BME280;32023;44.444;26.006;2023-06-05T00:08:08;100900.94;;;17.41;55.61
46291;BME280;32023;44.444;26.006;2023-06-05T00:10:34;100896.19;;;17.42;55.38
46291;BME280;32023;44.444;26.006;2023-06-05T00:13:00;100898.69;;;17.43;55.11
46291;BME280;32023;44.444;26.006;2023-06-05T00:15:27;100901.22;;;17.45;55.00
46291;BME280;32023;44.444;26.006;2023-06-05T00:17:53;100903.16;;;17.44;54.48
46291;BME280;32023;44.444;26.006;2023-06-05T00:20:21;100904.00;;;17.45;54.28
46291;BME280;32023;44.444;26.006;2023-06-05T00:22:47;100902.00;;;17.45;54.13
46291;BME280;32023;44.444;26.006;2023-06-05T00:25:14;100902.84;;;17.46;53.62
46291;BME280;32023;44.444;26.006;2023-06-05T00:27:42;100893.91;;;17.49;53.69
46291;BME280;32023;44.444;26.006;2023-06-05T00:30:09;100893.38;;;17.47;52.83
46291;BME280;32023;44.444;26.006;2023-06-05T00:32:36;100876.94;;;17.45;52.39
46291;BME280;32023;44.444;26.006;2023-06-05T00:35:03;100891.19;;;17.44;52.40
46291;BME280;32023;44.444;26.006;2023-06-05T00:37:29;100884.50;;;17.45;52.32
46291;BME280;32023;44.444;26.006;2023-06-05T00:39:56;100883.34;;;17.46;52.14
46291;BME280;32023;44.444;26.006;2023-06-05T00:42:22;100886.72;;;17.43;51.56
46291;BME280;32023;44.444;26.006;2023-06-05T00:44:48;100885.06;;;17.42;51.22
46291;BME280;32023;44.444;26.006;2023-06-05T00:47:16;100887.31;;;17.40;50.74
46291;BME280;32023;44.444;26.006;2023-06-05T00:49:42;100880.63;;;17.41;49.20
46291;BME280;32023;44.444;26.006;2023-06-05T00:52:09;100885.63;;;17.44;49.41
46291;BME280;32023;44.444;26.006;2023-06-05T00:54:35;100887.56;;;17.43;48.77
46291;BME280;32023;44.444;26.006;2023-06-05T00:57:02;100891.22;;;17.39;48.74
46291;BME280;32023;44.444;26.006;2023-06-05T00:59:32;100883.44;;;17.36;47.34
46291;BME280;32023;44.444;26.006;2023-06-05T01:02:00;100881.78;;;17.34;47.44
46291;BME280;32023;44.444;26.006;2023-06-05T01:04:28;100881.78;;;17.34;47.21
46291;BME280;32023;44.444;26.006;2023-06-05T01:06:55;100884.56;;;17.34;46.93
46291;BME280;32023;44.444;26.006;2023-06-05T01:09:24;100886.53;;;17.34;46.34
46291;BME280;32023;44.444;26.006;2023-06-05T01:14:22;100880.13;;;17.33;46.26
46291;BME280;32023;44.444;26.006;2023-06-05T01:16:51;100881.25;;;17.32;46.19
46291;BME280;32023;44.444;26.006;2023-06-05T01:19:23;100876.28;;;17.29;46.03
46291;BME280;32023;44.444;26.006;2023-06-05T01:21:57;100868.72;;;17.30;46.26
46291;BME280;32023;44.444;26.006;2023-06-05T01:24:24;100865.94;;;17.30;46.16
46291;BME280;32023;44.444;26.006;2023-06-05T01:27:08;100878.47;;;17.32;46.21
46291;BME280;32023;44.444;26.006;2023-06-05T01:29:43;100868.72;;;17.30;46.35
46291;BME280;32023;44.444;26.006;2023-06-05T01:32:17;100875.13;;;17.30;46.29
46291;BME280;32023;44.444;26.006;2023-06-05T01:34:45;100879.88;;;17.30;46.35
46291;BME280;32023;44.444;26.006;2023-06-05T01:37:14;100882.97;;;17.28;46.72
46291;BME280;32023;44.444;26.006;2023-06-05T01:39:46;100874.91;;;17.27;47.20
46291;BME280;32023;44.444;26.006;2023-06-05T01:42:13;100875.72;;;17.27;47.63
46291;BME280;32023;44.444;26.006;2023-06-05T01:44:41;100878.22;;;17.29;48.60
46291;BME280;32023;44.444;26.006;2023-06-05T01:47:09;100875.13;;;17.30;48.67
46291;BME280;32023;44.444;26.006;2023-06-05T01:49:36;100889.31;;;17.34;49.07
46291;BME280;32023;44.444;26.006;2023-06-05T01:52:02;100889.84;;;17.36;49.72
46291;BME280;32023;44.444;26.006;2023-06-05T01:54:29;100892.66;;;17.36;51.74
46291;BME280;32023;44.444;26.006;2023-06-05T01:56:58;100888.75;;;17.37;51.95
46291;BME280;32023;44.444;26.006;2023-06-05T01:59:26;100890.38;;;17.38;52.90
46291;BME280;32023;44.444;26.006;2023-06-05T02:01:52;100892.09;;;17.34;54.22
46291;BME280;32023;44.444;26.006;2023-06-05T02:04:18;100895.72;;;17.34;54.89
46291;BME280;32023;44.444;26.006;2023-06-05T02:06:45;100905.13;;;17.39;55.47
46291;BME280;32023;44.444;26.006;2023-06-05T02:09:13;100908.50;;;17.36;56.73
46291;BME280;32023;44.444;26.006;2023-06-05T02:11:40;100902.38;;;17.33;57.30
46291;BME280;32023;44.444;26.006;2023-06-05T02:14:09;100912.41;;;17.34;57.17
46291;BME280;32023;44.444;26.006;2023-06-05T02:16:39;100906.31;;;17.32;57.99
46291;BME280;32023;44.444;26.006;2023-06-05T02:19:06;100904.06;;;17.34;57.85
46291;BME280;32023;44.444;26.006;2023-06-05T02:21:33;100915.19;;;17.34;58.08
46291;BME280;32023;44.444;26.006;2023-06-05T02:24:00;100916.06;;;17.30;58.99
46291;BME280;32023;44.444;26.006;2023-06-05T02:26:27;100918.03;;;17.29;58.96
46291;BME280;32023;44.444;26.006;2023-06-05T02:28:54;100923.09;;;17.22;59.70
46291;BME280;32023;44.444;26.006;2023-06-05T02:31:25;100914.28;;;17.10;60.59
46291;BME280;32023;44.444;26.006;2023-06-05T02:33:55;100919.28;;;17.13;60.37
46291;BME280;32023;44.444;26.006;2023-06-05T02:36:22;100918.72;;;17.11;60.83
46291;BME280;32023;44.444;26.006;2023-06-05T02:38:50;100919.63;;;17.02;61.83
46291;BME280;32023;44.444;26.006;2023-06-05T02:41:20;100910.47;;;16.96;62.02
46291;BME280;32023;44.444;26.006;2023-06-05T02:43:47;100911.06;;;16.93;62.28
46291;BME280;32023;44.444;26.006;2023-06-05T02:46:14;100916.69;;;16.88;62.63
46291;BME280;32023;44.444;26.006;2023-06-05T02:48:40;100926.38;;;16.91;63.33
46291;BME280;32023;44.444;26.006;2023-06-05T02:51:06;100928.06;;;16.87;63.48
46291;BME280;32023;44.444;26.006;2023-06-05T02:53:33;100920.31;;;16.83;63.98
46291;BME280;32023;44.444;26.006;2023-06-05T02:55:59;100915.06;;;16.77;64.88
46291;BME280;32023;44.444;26.006;2023-06-05T02:58:27;100919.50;;;16.78;65.21
46291;BME280;32023;44.444;26.006;2023-06-05T03:00:54;100910.06;;;16.74;65.65
46291;BME280;32023;44.444;26.006;2023-06-05T03:03:22;100919.81;;;16.71;66.17
46291;BME280;32023;44.444;26.006;2023-06-05T03:05:53;100916.47;;;16.74;65.95
46291;BME280;32023;44.444;26.006;2023-06-05T03:08:19;100921.19;;;16.74;66.11
46291;BME280;32023;44.444;26.006;2023-06-05T03:10:46;100917.03;;;16.76;66.12
46291;BME280;32023;44.444;26.006;2023-06-05T03:13:12;100913.91;;;16.83;66.05
46291;BME280;32023;44.444;26.006;2023-06-05T03:15:39;100927.81;;;16.88;65.96
46291;BME280;32023;44.444;26.006;2023-06-05T03:18:05;100923.94;;;16.84;66.43
46291;BME280;32023;44.444;26.006;2023-06-05T03:20:32;100922.78;;;16.85;66.46
46291;BME280;32023;44.444;26.006;2023-06-05T03:22:58;100923.94;;;16.84;66.76
46291;BME280;32023;44.444;26.006;2023-06-05T03:25:24;100931.47;;;16.78;67.35
46291;BME280;32023;44.444;26.006;2023-06-05T03:27:53;100930.69;;;16.73;67.56
46291;BME280;32023;44.444;26.006;2023-06-05T03:30:20;100938.47;;;16.71;68.10
46291;BME280;32023;44.444;26.006;2023-06-05T03:32:48;100933.16;;;16.74;68.13
46291;BME280;32023;44.444;26.006;2023-06-05T03:35:15;100936.16;;;16.83;67.94
46291;BME280;32023;44.444;26.006;2023-06-05T03:37:43;100930.59;;;16.88;67.50
46291;BME280;32023;44.444;26.006;2023-06-05T03:40:10;100933.63;;;16.92;67.62
46291;BME280;32023;44.444;26.006;2023-06-05T03:42:36;100931.09;;;16.95;67.57
46291;BME280;32023;44.444;26.006;2023-06-05T03:45:03;100940.78;;;17.03;67.47
46291;BME280;32023;44.444;26.006;2023-06-05T03:47:30;100938.19;;;17.11;67.04
46291;BME280;32023;44.444;26.006;2023-06-05T03:49:56;100935.63;;;17.20;67.02
46291;BME280;32023;44.444;26.006;2023-06-05T03:52:22;100938.97;;;17.22;66.56
46291;BME280;32023;44.444;26.006;2023-06-05T03:54:58;100941.19;;;17.20;66.08
46291;BME280;32023;44.444;26.006;2023-06-05T03:57:26;100937.88;;;17.18;65.71
46291;BME280;32023;44.444;26.006;2023-06-05T03:59:58;100932.84;;;17.20;65.51
46291;BME280;32023;44.444;26.006;2023-06-05T04:02:24;100932.50;;;17.26;65.47
46291;BME280;32023;44.444;26.006;2023-06-05T04:04:50;100936.88;;;17.38;65.38
46291;BME280;32023;44.444;26.006;2023-06-05T04:07:17;100938.22;;;17.45;64.72
46291;BME280;32023;44.444;26.006;2023-06-05T04:09:43;100941.56;;;17.47;64.39
46291;BME280;32023;44.444;26.006;2023-06-05T04:12:10;100944.03;;;17.49;64.02
46291;BME280;32023;44.444;26.006;2023-06-05T04:14:36;100941.78;;;17.51;63.68
46291;BME280;32023;44.444;26.006;2023-06-05T04:17:04;100941.19;;;17.54;63.63
46291;BME280;32023;44.444;26.006;2023-06-05T04:19:30;100936.47;;;17.59;63.61
46291;BME280;32023;44.444;26.006;2023-06-05T04:21:57;100936.66;;;17.68;63.57
46291;BME280;32023;44.444;26.006;2023-06-05T04:24:23;100936.56;;;17.78;63.20
46291;BME280;32023;44.444;26.006;2023-06-05T04:26:51;100934.53;;;17.84;63.15
46291;BME280;32023;44.444;26.006;2023-06-05T04:29:18;100933.16;;;17.86;62.86
46291;BME280;32023;44.444;26.006;2023-06-05T04:31:47;100929.75;;;17.89;62.63
46291;BME280;32023;44.444;26.006;2023-06-05T04:34:14;100935.03;;;17.91;62.18
46291;BME280;32023;44.444;26.006;2023-06-05T04:36:41;100942.81;;;17.94;61.58
46291;BME280;32023;44.444;26.006;2023-06-05T04:39:07;100936.41;;;17.93;61.61
46291;BME280;32023;44.444;26.006;2023-06-05T04:41:41;100940.50;;;18.01;61.38
46291;BME280;32023;44.444;26.006;2023-06-05T04:44:14;100934.56;;;18.07;60.85
46291;BME280;32023;44.444;26.006;2023-06-05T04:46:43;100945.13;;;18.10;60.97
46291;BME280;32023;44.444;26.006;2023-06-05T04:49:15;100942.81;;;18.17;60.79
46291;BME280;32023;44.444;26.006;2023-06-05T04:51:42;100949.47;;;18.21;60.21
46291;BME280;32023;44.444;26.006;2023-06-05T04:54:10;100949.47;;;18.21;60.17
46291;BME280;32023;44.444;26.006;2023-06-05T04:56:36;100948.88;;;18.24;60.10
46291;BME280;32023;44.444;26.006;2023-06-05T04:59:05;100955.81;;;18.27;59.90
46291;BME280;32023;44.444;26.006;2023-06-05T05:01:32;100947.69;;;18.31;60.04
46291;BME280;32023;44.444;26.006;2023-06-05T05:03:59;100955.00;;;18.26;60.57
46291;BME280;32023;44.444;26.006;2023-06-05T05:06:25;100946.66;;;18.21;60.75
46291;BME280;32023;44.444;26.006;2023-06-05T05:08:52;100947.78;;;18.20;60.80
46291;BME280;32023;44.444;26.006;2023-06-05T05:11:19;100947.00;;;18.20;61.03
46291;BME280;32023;44.444;26.006;2023-06-05T05:13:46;100947.16;;;18.28;61.13
46291;BME280;32023;44.444;26.006;2023-06-05T05:16:14;100947.69;;;18.31;61.30
46291;BME280;32023;44.444;26.006;2023-06-05T05:18:44;100948.16;;;18.38;61.27
46291;BME280;32023;44.444;26.006;2023-06-05T05:21:12;100949.75;;;18.44;61.40
46291;BME280;32023;44.444;26.006;2023-06-05T05:23:39;100949.41;;;18.50;61.22
46291;BME280;32023;44.444;26.006;2023-06-05T05:26:06;100962.94;;;18.62;61.27
46291;BME280;32023;44.444;26.006;2023-06-05T05:28:35;100952.25;;;18.69;61.29
46291;BME280;32023;44.444;26.006;2023-06-05T05:31:02;100954.06;;;18.79;61.20
46291;BME280;32023;44.444;26.006;2023-06-05T05:33:32;100961.50;;;18.88;61.17
46291;BME280;32023;44.444;26.006;2023-06-05T05:35:58;100949.63;;;18.96;60.74
46291;BME280;32023;44.444;26.006;2023-06-05T05:38:38;100950.84;;;19.09;60.30
46291;BME280;32023;44.444;26.006;2023-06-05T05:41:08;100961.28;;;19.22;59.94
46291;BME280;32023;44.444;26.006;2023-06-05T05:43:35;100954.91;;;19.35;59.30
46291;BME280;32023;44.444;26.006;2023-06-05T05:46:01;100954.75;;;19.45;58.18
46291;BME280;32023;44.444;26.006;2023-06-05T05:48:27;100952.31;;;19.57;57.81
46291;BME280;32023;44.444;26.006;2023-06-05T05:50:54;100951.34;;;19.67;57.33
46291;BME280;32023;44.444;26.006;2023-06-05T05:53:20;100960.66;;;19.76;56.97
46291;BME280;32023;44.444;26.006;2023-06-05T05:55:46;100959.34;;;19.87;55.81
46291;BME280;32023;44.444;26.006;2023-06-05T05:58:15;100965.91;;;19.96;55.31
46291;BME280;32023;44.444;26.006;2023-06-05T06:00:42;100960.53;;;20.13;53.96
46291;BME280;32023;44.444;26.006;2023-06-05T06:03:09;100958.00;;;20.31;53.15
46291;BME280;32023;44.444;26.006;2023-06-05T06:05:35;100960.16;;;20.47;51.84
46291;BME280;32023;44.444;26.006;2023-06-05T06:08:02;100968.44;;;20.66;49.69
46291;BME280;32023;44.444;26.006;2023-06-05T06:10:29;100966.47;;;20.80;46.20
46291;BME280;32023;44.444;26.006;2023-06-05T06:12:56;100965.50;;;20.98;45.76
46291;BME280;32023;44.444;26.006;2023-06-05T06:15:23;100966.09;;;21.09;43.91
46291;BME280;32023;44.444;26.006;2023-06-05T06:17:49;100971.13;;;21.34;43.95
46291;BME280;32023;44.444;26.006;2023-06-05T06:20:16;100972.78;;;21.57;43.02
46291;BME280;32023;44.444;26.006;2023-06-05T06:22:43;100968.53;;;21.82;41.86
46291;BME280;32023;44.444;26.006;2023-06-05T06:25:11;100974.25;;;21.99;40.33
46291;BME280;32023;44.444;26.006;2023-06-05T06:27:38;100983.03;;;22.06;37.98
46291;BME280;32023;44.444;26.006;2023-06-05T06:30:05;100980.59;;;22.14;38.28
46291;BME280;32023;44.444;26.006;2023-06-05T06:32:31;100979.31;;;22.20;37.60
46291;BME280;32023;44.444;26.006;2023-06-05T06:35:00;100980.53;;;22.27;38.00
46291;BME280;32023;44.444;26.006;2023-06-05T06:37:27;100975.91;;;22.31;38.07
46291;BME280;32023;44.444;26.006;2023-06-05T06:39:54;100972.94;;;22.28;38.74
46291;BME280;32023;44.444;26.006;2023-06-05T06:42:20;100977.41;;;22.37;38.90
46291;BME280;32023;44.444;26.006;2023-06-05T06:44:47;100982.78;;;22.56;38.68
46291;BME280;32023;44.444;26.006;2023-06-05T06:47:19;100974.59;;;22.68;38.02
46291;BME280;32023;44.444;26.006;2023-06-05T06:49:47;100974.28;;;22.78;37.21
46291;BME280;32023;44.444;26.006;2023-06-05T06:52:14;100975.47;;;22.94;36.86
46291;BME280;32023;44.444;26.006;2023-06-05T06:54:41;100973.00;;;23.01;36.26
46291;BME280;32023;44.444;26.006;2023-06-05T06:57:07;100970.72;;;23.03;35.40
46291;BME280;32023;44.444;26.006;2023-06-05T06:59:34;100968.88;;;23.08;33.58
46291;BME280;32023;44.444;26.006;2023-06-05T07:02:11;100965.94;;;23.21;32.06
46291;BME280;32023;44.444;26.006;2023-06-05T07:04:40;100974.50;;;23.16;30.27
46291;BME280;32023;44.444;26.006;2023-06-05T07:10:18;100978.81;;;23.31;28.88
46291;BME280;32023;44.444;26.006;2023-06-05T07:12:45;100979.53;;;23.45;28.12
46291;BME280;32023;44.444;26.006;2023-06-05T07:15:13;100976.53;;;23.59;27.74
46291;BME280;32023;44.444;26.006;2023-06-05T07:17:39;100987.91;;;23.79;27.71
46291;BME280;32023;44.444;26.006;2023-06-05T07:20:06;100979.63;;;23.91;26.84
46291;BME280;32023;44.444;26.006;2023-06-05T07:22:36;100985.75;;;23.93;25.28
46291;BME280;32023;44.444;26.006;2023-06-05T07:25:03;100987.38;;;24.03;26.23
46291;BME280;32023;44.444;26.006;2023-06-05T07:27:34;100983.09;;;24.06;26.53
46291;BME280;32023;44.444;26.006;2023-06-05T07:30:02;100985.56;;;24.16;26.85
46291;BME280;32023;44.444;26.006;2023-06-05T07:32:28;100989.13;;;24.42;27.85
46291;BME280;32023;44.444;26.006;2023-06-05T07:34:54;100994.31;;;24.69;28.15
46291;BME280;32023;44.444;26.006;2023-06-05T07:37:24;100993.16;;;25.00;27.40
46291;BME280;32023;44.444;26.006;2023-06-05T07:39:50;100996.25;;;25.07;27.20
46291;BME280;32023;44.444;26.006;2023-06-05T07:42:18;100966.91;;;25.08;26.67
46291;BME280;32023;44.444;26.006;2023-06-05T07:44:49;100994.69;;;25.18;26.48
46291;BME280;32023;44.444;26.006;2023-06-05T07:47:15;100994.59;;;25.06;26.63
46291;BME280;32023;44.444;26.006;2023-06-05T07:49:44;100986.38;;;25.21;27.14
46291;BME280;32023;44.444;26.006;2023-06-05T07:52:13;100990.44;;;25.32;27.29
46291;BME280;32023;44.444;26.006;2023-06-05T07:55:03;100979.81;;;25.50;27.06
46291;BME280;32023;44.444;26.006;2023-06-05T07:57:38;100983.84;;;25.70;26.48
46291;BME280;32023;44.444;26.006;2023-06-05T08:00:05;100983.53;;;25.83;25.70
46291;BME280;32023;44.444;26.006;2023-06-05T08:02:32;100985.69;;;25.86;25.41
46291;BME280;32023;44.444;26.006;2023-06-05T08:04:58;100984.41;;;25.96;24.51
46291;BME280;32023;44.444;26.006;2023-06-05T08:07:25;100977.25;;;26.11;24.01
46291;BME280;32023;44.444;26.006;2023-06-05T08:09:51;100990.97;;;26.33;24.06
46291;BME280;32023;44.444;26.006;2023-06-05T08:12:21;100990.06;;;26.53;23.41
46291;BME280;32023;44.444;26.006;2023-06-05T08:14:47;100992.06;;;26.53;22.36
46291;BME280;32023;44.444;26.006;2023-06-05T08:17:14;100984.19;;;26.46;21.95
46291;BME280;32023;44.444;26.006;2023-06-05T08:19:40;100983.13;;;26.39;21.52
46291;BME280;32023;44.444;26.006;2023-06-05T08:22:09;100984.00;;;26.18;21.54
46291;BME280;32023;44.444;26.006;2023-06-05T08:24:36;100979.38;;;26.02;23.15
46291;BME280;32023;44.444;26.006;2023-06-05T08:27:03;100975.56;;;25.85;24.02
46291;BME280;32023;44.444;26.006;2023-06-05T08:29:34;100966.97;;;25.82;25.11
46291;BME280;32023;44.444;26.006;2023-06-05T08:32:04;100971.50;;;25.74;25.46
46291;BME280;32023;44.444;26.006;2023-06-05T08:34:31;100967.78;;;25.82;25.32
46291;BME280;32023;44.444;26.006;2023-06-05T08:36:58;100974.84;;;25.88;23.76
46291;BME280;32023;44.444;26.006;2023-06-05T08:39:35;100964.13;;;25.82;23.16
46291;BME280;32023;44.444;26.006;2023-06-05T08:42:08;100960.94;;;25.83;24.23
46291;BME280;32023;44.444;26.006;2023-06-05T08:44:49;100953.47;;;26.00;24.43
46291;BME280;32023;44.444;26.006;2023-06-05T08:47:38;100949.09;;;26.23;24.39
46291;BME280;32023;44.444;26.006;2023-06-05T08:50:14;100951.09;;;26.34;24.65
46291;BME280;32023;44.444;26.006;2023-06-05T08:52:43;100957.59;;;26.47;24.34
46291;BME280;32023;44.444;26.006;2023-06-05T08:55:14;100955.47;;;26.56;24.33
46291;BME280;32023;44.444;26.006;2023-06-05T08:57:56;100951.22;;;26.74;23.73
46291;BME280;32023;44.444;26.006;2023-06-05T09:00:34;100964.41;;;26.82;23.26
46291;BME280;32023;44.444;26.006;2023-06-05T09:03:10;100964.06;;;26.72;23.49
46291;BME280;32023;44.444;26.006;2023-06-05T09:05:53;100962.28;;;26.79;23.48
46291;BME280;32023;44.444;26.006;2023-06-05T09:08:32;100956.53;;;27.00;23.13
46291;BME280;32023;44.444;26.006;2023-06-05T09:11:24;100964.16;;;27.12;22.50
46291;BME280;32023;44.444;26.006;2023-06-05T09:13:51;100968.53;;;27.09;23.11
46291;BME280;32023;44.444;26.006;2023-06-05T09:16:22;100964.84;;;27.21;23.01
46291;BME280;32023;44.444;26.006;2023-06-05T09:18:56;100966.44;;;27.46;22.96
46291;BME280;32023;44.444;26.006;2023-06-05T09:21:32;100966.25;;;27.67;23.44
46291;BME280;32023;44.444;26.006;2023-06-05T09:24:15;100972.13;;;28.02;23.17
46291;BME280;32023;44.444;26.006;2023-06-05T09:29:38;100974.31;;;27.81;20.22
46291;BME280;32023;44.444;26.006;2023-06-05T09:32:08;100967.09;;;27.67;19.96
46291;BME280;32023;44.444;26.006;2023-06-05T09:34:39;100972.56;;;27.76;20.21
46291;BME280;32023;44.444;26.006;2023-06-05T09:37:07;100969.72;;;27.60;19.99
46291;BME280;32023;44.444;26.006;2023-06-05T09:39:38;100979.13;;;27.64;19.87
46291;BME280;32023;44.444;26.006;2023-06-05T09:42:05;100978.59;;;27.74;19.79
46291;BME280;32023;44.444;26.006;2023-06-05T09:44:35;100972.56;;;28.04;19.72
46291;BME280;32023;44.444;26.006;2023-06-05T09:47:10;100984.34;;;28.06;19.25
46291;BME280;32023;44.444;26.006;2023-06-05T09:52:12;100961.59;;;28.77;19.31
46291;BME280;32023;44.444;26.006;2023-06-05T09:54:40;100958.25;;;29.26;18.78
46291;BME280;32023;44.444;26.006;2023-06-05T09:57:11;100982.72;;;29.69;18.09
46291;BME280;32023;44.444;26.006;2023-06-05T09:59:55;100965.97;;;29.83;17.89
46291;BME280;32023;44.444;26.006;2023-06-05T10:02:35;100976.22;;;30.29;17.91
46291;BME280;32023;44.444;26.006;2023-06-05T10:05:04;100968.91;;;30.28;17.29
46291;BME280;32023;44.444;26.006;2023-06-05T10:07:36;100962.59;;;30.16;17.54
46291;BME280;32023;44.444;26.006;2023-06-05T10:10:16;100951.88;;;30.51;17.82
46291;BME280;32023;44.444;26.006;2023-06-05T10:12:46;100946.19;;;31.00;17.44
46291;BME280;32023;44.444;26.006;2023-06-05T10:15:13;100950.00;;;31.71;17.19
46291;BME280;32023;44.444;26.006;2023-06-05T10:17:49;100940.94;;;32.32;16.40
46291;BME280;32023;44.444;26.006;2023-06-05T10:20:37;100938.03;;;33.30;15.86
46291;BME280;32023;44.444;26.006;2023-06-05T10:23:12;100928.16;;;34.39;14.99
46291;BME280;32023;44.444;26.006;2023-06-05T10:25:54;100931.25;;;35.51;14.38
46291;BME280;32023;44.444;26.006;2023-06-05T10:28:49;100935.88;;;37.10;12.98
46291;BME280;32023;44.444;26.006;2023-06-05T10:31:44;100922.56;;;37.27;12.38
46291;BME280;32023;44.444;26.006;2023-06-05T10:37:30;100915.50;;;39.58;11.23
46291;BME280;32023;44.444;26.006;2023-06-05T10:40:11;100912.69;;;40.10;10.75
46291;BME280;32023;44.444;26.006;2023-06-05T10:42:43;100919.69;;;40.45;10.69
46291;BME280;32023;44.444;26.006;2023-06-05T10:45:30;100914.03;;;41.60;9.54
46291;BME280;32023;44.444;26.006;2023-06-05T10:48:24;100912.63;;;40.78;10.29
46291;BME280;32023;44.444;26.006;2023-06-05T10:54:09;100906.09;;;40.10;10.78
46291;BME280;32023;44.444;26.006;2023-06-05T10:57:10;100912.97;;;39.40;11.37
46291;BME280;32023;44.444;26.006;2023-06-05T10:59:40;100900.69;;;39.56;11.11
46291;BME280;32023;44.444;26.006;2023-06-05T11:07:28;100906.72;;;36.74;12.63
46291;BME280;32023;44.444;26.006;2023-06-05T11:10:19;100897.34;;;35.39;13.98
46291;BME280;32023;44.444;26.006;2023-06-05T11:12:55;100890.97;;;34.36;15.30
46291;BME280;32023;44.444;26.006;2023-06-05T11:15:42;100887.69;;;34.26;15.13
46291;BME280;32023;44.444;26.006;2023-06-05T11:18:38;100898.97;;;33.63;15.54
46291;BME280;32023;44.444;26.006;2023-06-05T11:21:16;100895.03;;;32.47;16.44
46291;BME280;32023;44.444;26.006;2023-06-05T11:24:15;100887.41;;;31.78;16.85
46291;BME280;32023;44.444;26.006;2023-06-05T11:26:51;100883.22;;;31.65;17.92
46291;BME280;32023;44.444;26.006;2023-06-05T11:29:18;100886.31;;;30.93;18.19
46291;BME280;32023;44.444;26.006;2023-06-05T11:31:44;100870.47;;;30.66;18.76
46291;BME280;32023;44.444;26.006;2023-06-05T11:37:18;100868.69;;;30.08;19.36
46291;BME280;32023;44.444;26.006;2023-06-05T11:39:59;100863.84;;;30.09;19.04
46291;BME280;32023;44.444;26.006;2023-06-05T11:42:50;100867.75;;;30.24;18.63
46291;BME280;32023;44.444;26.006;2023-06-05T11:45:26;100872.44;;;29.90;19.50
46291;BME280;32023;44.444;26.006;2023-06-05T11:48:09;100865.94;;;29.70;19.75
46291;BME280;32023;44.444;26.006;2023-06-05T11:50:42;100862.88;;;29.79;20.04
46291;BME280;32023;44.444;26.006;2023-06-05T11:53:18;100869.41;;;30.02;19.50
46291;BME280;32023;44.444;26.006;2023-06-05T11:55:44;100874.38;;;30.08;19.52
46291;BME280;32023;44.444;26.006;2023-06-05T11:58:33;100865.81;;;29.63;20.72
46291;BME280;32023;44.444;26.006;2023-06-05T12:01:16;100873.69;;;28.61;21.49
46291;BME280;32023;44.444;26.006;2023-06-05T12:04:26;100857.06;;;28.44;22.29
46291;BME280;32023;44.444;26.006;2023-06-05T12:06:52;100866.03;;;28.46;22.67
46291;BME280;32023;44.444;26.006;2023-06-05T12:09:19;100859.41;;;28.23;22.56
46291;BME280;32023;44.444;26.006;2023-06-05T12:11:45;100864.31;;;28.10;22.84
46291;BME280;32023;44.444;26.006;2023-06-05T12:14:13;100856.44;;;28.04;23.25
46291;BME280;32023;44.444;26.006;2023-06-05T12:16:41;100855.22;;;28.17;23.00
46291;BME280;32023;44.444;26.006;2023-06-05T12:19:14;100849.06;;;28.31;23.53
46291;BME280;32023;44.444;26.006;2023-06-05T12:21:44;100853.16;;;28.33;23.23
46291;BME280;32023;44.444;26.006;2023-06-05T12:24:11;100850.81;;;28.35;23.61
46291;BME280;32023;44.444;26.006;2023-06-05T12:29:53;100839.84;;;28.18;22.32
46291;BME280;32023;44.444;26.006;2023-06-05T12:32:29;100833.63;;;28.28;22.48
46291;BME280;32023;44.444;26.006;2023-06-05T12:35:05;100844.22;;;28.31;22.67
46291;BME280;32023;44.444;26.006;2023-06-05T12:37:43;100844.94;;;27.97;23.26
46291;BME280;32023;44.444;26.006;2023-06-05T12:40:11;100850.97;;;27.80;23.19
46291;BME280;32023;44.444;26.006;2023-06-05T12:42:39;100837.53;;;27.76;22.91
46291;BME280;32023;44.444;26.006;2023-06-05T12:45:07;100843.50;;;27.87;22.82
46291;BME280;32023;44.444;26.006;2023-06-05T12:47:34;100850.75;;;27.72;22.67
46291;BME280;32023;44.444;26.006;2023-06-05T12:50:02;100842.38;;;27.76;22.64
46291;BME280;32023;44.444;26.006;2023-06-05T12:52:29;100839.53;;;27.92;22.07
46291;BME280;32023;44.444;26.006;2023-06-05T12:54:59;100825.38;;;28.07;21.73
46291;BME280;32023;44.444;26.006;2023-06-05T12:57:28;100829.06;;;28.08;21.62
46291;BME280;32023;44.444;26.006;2023-06-05T12:59:57;100838.50;;;28.12;22.02
46291;BME280;32023;44.444;26.006;2023-06-05T13:02:23;100831.78;;;27.89;22.54
46291;BME280;32023;44.444;26.006;2023-06-05T13:04:50;100837.81;;;27.71;22.91
46291;BME280;32023;44.444;26.006;2023-06-05T13:07:34;100827.75;;;27.58;22.95
46291;BME280;32023;44.444;26.006;2023-06-05T13:10:03;100824.97;;;27.46;22.59
46291;BME280;32023;44.444;26.006;2023-06-05T13:12:31;100822.63;;;27.48;22.79
46291;BME280;32023;44.444;26.006;2023-06-05T13:14:57;100823.22;;;27.42;22.51
46291;BME280;32023;44.444;26.006;2023-06-05T13:17:28;100821.47;;;27.37;22.62
46291;BME280;32023;44.444;26.006;2023-06-05T13:20:00;100812.72;;;27.42;22.29
46291;BME280;32023;44.444;26.006;2023-06-05T13:22:26;100831.97;;;27.37;22.32
46291;BME280;32023;44.444;26.006;2023-06-05T13:24:56;100815.63;;;27.30;22.44